createdAt,value
2017-06-30T00:00:01.700Z,76.90
2017-06-30T00:02:28.173Z,77.50
2017-06-30T00:04:54.701Z,77.00
2017-06-30T00:07:21.183Z,76.90
2017-06-30T00:09:47.655Z,76.90
2017-06-30T00:12:14.144Z,77.40
2017-06-30T00:14:40.649Z,77.30
2017-06-30T00:17:07.925Z,78.00
2017-06-30T00:19:34.441Z,77.30
2017-06-30T00:22:00.931Z,77.10
2017-06-30T00:24:27.442Z,76.90
2017-06-30T00:26:53.904Z,77.10
2017-06-30T00:29:20.408Z,77.20
2017-06-30T00:31:46.958Z,77.30
2017-06-30T00:34:13.445Z,77.40
2017-06-30T00:36:40.007Z,77.70
2017-06-30T00:39:06.485Z,77.80
2017-06-30T00:41:32.968Z,78.20
2017-06-30T00:43:59.487Z,78.10
2017-06-30T00:46:25.974Z,78.50
2017-06-30T00:48:52.522Z,78.50
2017-06-30T00:51:19.758Z,78.30
2017-06-30T00:53:46.248Z,78.30
2017-06-30T00:56:13.384Z,77.90
2017-06-30T00:58:39.881Z,77.90
2017-06-30T01:01:07.133Z,77.70
2017-06-30T01:03:34.381Z,77.80
2017-06-30T01:06:01.598Z,78.60
2017-06-30T01:08:28.315Z,77.90
2017-06-30T01:10:54.808Z,77.80
2017-06-30T01:13:22.035Z,77.90
2017-06-30T01:15:48.533Z,77.90
2017-06-30T01:18:15.024Z,78.90
2017-06-30T01:20:42.285Z,78.20
2017-06-30T01:23:09.546Z,78.30
2017-06-30T01:25:36.025Z,78.30
2017-06-30T01:28:02.541Z,77.90
2017-06-30T01:30:29.032Z,77.40
2017-06-30T01:32:55.530Z,77.80
2017-06-30T01:35:22.080Z,78.00
2017-06-30T01:37:48.598Z,77.90
2017-06-30T01:40:15.148Z,77.90
2017-06-30T01:42:42.394Z,78.20
2017-06-30T01:45:08.898Z,77.50
2017-06-30T01:47:35.476Z,77.30
2017-06-30T01:50:02.787Z,76.90
2017-06-30T01:52:29.318Z,76.90
2017-06-30T01:54:55.832Z,77.30
2017-06-30T01:57:22.419Z,77.80
2017-06-30T01:59:49.671Z,77.20
2017-06-30T02:02:16.913Z,76.50
2017-06-30T02:04:43.444Z,76.50
2017-06-30T02:07:09.921Z,76.70
2017-06-30T02:09:36.396Z,76.80
2017-06-30T02:12:03.109Z,76.80
2017-06-30T02:14:29.587Z,76.90
2017-06-30T02:16:56.838Z,77.50
2017-06-30T02:19:24.079Z,76.40
2017-06-30T02:21:50.570Z,76.40
2017-06-30T02:24:17.317Z,76.70
2017-06-30T02:26:43.848Z,76.30
2017-06-30T02:29:10.353Z,76.40
2017-06-30T02:31:36.869Z,76.20
2017-06-30T02:34:04.506Z,76.40
2017-06-30T02:36:30.986Z,76.40
2017-06-30T02:38:57.512Z,76.50
2017-06-30T02:41:23.990Z,76.70
2017-06-30T02:43:50.489Z,76.70
2017-06-30T02:46:16.945Z,76.80
2017-06-30T02:48:43.473Z,76.60
2017-06-30T02:51:10.010Z,76.70
2017-06-30T02:53:36.556Z,76.70
2017-06-30T02:56:03.031Z,76.60
2017-06-30T02:58:30.287Z,76.90
2017-06-30T03:00:56.809Z,76.90
2017-06-30T03:03:24.050Z,77.00
2017-06-30T03:05:51.263Z,77.10
2017-06-30T03:08:17.763Z,77.10
2017-06-30T03:10:44.248Z,77.20
2017-06-30T03:13:10.886Z,76.90
2017-06-30T03:15:37.359Z,76.80
2017-06-30T03:18:03.825Z,77.00
2017-06-30T03:20:30.331Z,76.90
2017-06-30T03:22:56.793Z,76.90
2017-06-30T03:25:23.352Z,76.90
2017-06-30T03:27:49.846Z,77.20
2017-06-30T03:30:16.359Z,77.00
2017-06-30T03:32:42.861Z,76.80
2017-06-30T03:35:10.073Z,75.90
2017-06-30T03:37:36.592Z,76.40
2017-06-30T03:40:03.089Z,76.20
2017-06-30T03:42:30.330Z,77.00
2017-06-30T03:44:57.563Z,76.70
2017-06-30T03:47:24.059Z,76.80
2017-06-30T03:49:50.618Z,76.40
2017-06-30T03:52:17.143Z,76.60
2017-06-30T03:54:43.631Z,76.50
2017-06-30T03:57:10.127Z,76.20
2017-06-30T03:59:36.593Z,76.10
2017-06-30T04:02:03.117Z,76.00
2017-06-30T04:04:30.326Z,76.20
2017-06-30T04:06:56.841Z,76.30
2017-06-30T04:09:23.314Z,75.90
2017-06-30T04:11:49.810Z,75.80
2017-06-30T04:14:16.309Z,75.90
2017-06-30T04:16:42.797Z,75.80
2017-06-30T04:19:09.285Z,75.90
2017-06-30T04:21:35.783Z,76.10
2017-06-30T04:24:02.249Z,76.00
2017-06-30T04:26:28.751Z,75.70
2017-06-30T04:28:55.990Z,75.60
2017-06-30T04:31:22.700Z,75.60
2017-06-30T04:33:49.201Z,75.30
2017-06-30T04:36:15.668Z,75.40
2017-06-30T04:38:42.167Z,75.10
2017-06-30T04:41:08.632Z,75.80
2017-06-30T04:43:35.152Z,75.20
2017-06-30T04:46:01.653Z,74.80
2017-06-30T04:48:28.147Z,74.60
2017-06-30T04:50:54.578Z,74.40
2017-06-30T04:53:21.124Z,74.20
2017-06-30T04:55:47.609Z,74.00
2017-06-30T04:58:14.099Z,73.60
2017-06-30T05:00:41.325Z,74.00
2017-06-30T05:03:07.820Z,74.00
2017-06-30T05:05:34.330Z,74.00
2017-06-30T05:08:00.821Z,73.50
2017-06-30T05:10:27.333Z,72.30
2017-06-30T05:12:53.822Z,72.00
2017-06-30T05:15:20.280Z,71.20
2017-06-30T05:17:46.759Z,71.40
2017-06-30T05:20:13.223Z,72.10
2017-06-30T05:22:39.729Z,71.60
2017-06-30T05:25:06.211Z,71.70
2017-06-30T05:27:32.741Z,69.70
2017-06-30T05:29:59.202Z,70.00
2017-06-30T05:32:25.667Z,70.40
2017-06-30T05:34:52.295Z,69.10
2017-06-30T05:37:18.761Z,68.10
2017-06-30T05:39:45.238Z,66.20
2017-06-30T05:42:11.749Z,65.80
2017-06-30T05:44:38.237Z,65.30
2017-06-30T05:47:05.509Z,62.70
2017-06-30T05:49:32.006Z,62.70
2017-06-30T05:51:58.527Z,63.90
2017-06-30T05:54:25.117Z,63.40
2017-06-30T05:56:51.597Z,63.80
2017-06-30T05:59:18.102Z,62.60
2017-06-30T06:01:44.596Z,62.90
2017-06-30T06:04:11.851Z,63.50
2017-06-30T06:06:39.096Z,64.30
2017-06-30T06:09:06.316Z,63.60
2017-06-30T06:11:33.044Z,63.60
2017-06-30T06:13:59.559Z,63.10
2017-06-30T06:16:26.043Z,63.00
2017-06-30T06:18:53.445Z,63.60
2017-06-30T06:21:19.963Z,63.60
2017-06-30T06:23:46.416Z,64.00
2017-06-30T06:26:12.917Z,63.80
2017-06-30T06:28:39.413Z,62.50
2017-06-30T06:31:05.912Z,63.30
2017-06-30T06:33:32.389Z,63.60
2017-06-30T06:35:59.913Z,63.70
2017-06-30T06:38:26.373Z,64.00
2017-06-30T06:40:52.873Z,63.70
2017-06-30T06:43:19.437Z,63.20
2017-06-30T06:45:46.632Z,63.20
2017-06-30T06:48:13.141Z,63.00
2017-06-30T06:50:40.385Z,63.20
2017-06-30T06:53:07.601Z,62.60
2017-06-30T06:55:34.170Z,62.60
2017-06-30T06:58:01.392Z,62.70
2017-06-30T07:00:27.855Z,62.60
2017-06-30T07:02:55.213Z,63.00
2017-06-30T07:05:21.677Z,63.00
2017-06-30T07:07:48.156Z,63.60
2017-06-30T07:10:14.647Z,62.80
2017-06-30T07:12:41.181Z,61.30
2017-06-30T07:15:07.725Z,61.20
2017-06-30T07:17:34.819Z,61.50
2017-06-30T07:20:01.371Z,60.00
2017-06-30T07:22:27.866Z,59.70
2017-06-30T07:24:54.395Z,59.00
2017-06-30T07:27:20.916Z,58.30
2017-06-30T07:29:47.377Z,58.70
2017-06-30T07:32:14.630Z,56.80
2017-06-30T07:34:41.877Z,54.60
2017-06-30T07:37:09.074Z,54.00
2017-06-30T07:39:35.596Z,53.90
2017-06-30T07:42:02.075Z,52.00
2017-06-30T07:44:28.568Z,50.80
2017-06-30T07:46:55.055Z,49.60
2017-06-30T07:49:22.327Z,50.60
2017-06-30T07:51:48.808Z,50.60
2017-06-30T07:54:15.324Z,48.40
2017-06-30T07:56:42.031Z,48.90
2017-06-30T07:59:08.530Z,49.00
2017-06-30T08:01:35.057Z,48.10
2017-06-30T08:04:01.602Z,47.50
2017-06-30T08:06:28.832Z,46.00
2017-06-30T08:08:55.512Z,46.00
2017-06-30T08:11:21.992Z,47.60
2017-06-30T08:13:48.456Z,46.90
2017-06-30T08:16:14.987Z,44.90
2017-06-30T08:18:41.444Z,46.70
2017-06-30T08:21:07.875Z,46.70
2017-06-30T08:23:34.430Z,45.90
2017-06-30T08:26:00.921Z,44.80
2017-06-30T08:28:28.287Z,45.20
2017-06-30T08:30:55.501Z,42.00
2017-06-30T08:33:21.969Z,42.00
2017-06-30T08:35:48.532Z,42.30
2017-06-30T08:38:14.989Z,42.70
2017-06-30T08:40:41.440Z,41.80
2017-06-30T08:43:07.964Z,40.10
2017-06-30T08:45:34.457Z,41.60
2017-06-30T08:48:00.948Z,40.30
2017-06-30T08:50:27.433Z,39.60
2017-06-30T08:55:25.700Z,37.20
2017-06-30T08:57:52.199Z,39.40
2017-06-30T09:00:19.519Z,38.00
2017-06-30T09:02:48.011Z,37.70
2017-06-30T09:05:14.516Z,36.30
2017-06-30T09:07:41.023Z,36.00
2017-06-30T09:10:07.495Z,37.40
2017-06-30T09:12:34.011Z,35.70
2017-06-30T09:15:00.503Z,33.90
2017-06-30T09:17:27.713Z,34.90
2017-06-30T09:19:54.249Z,34.80
2017-06-30T09:22:20.752Z,31.80
2017-06-30T09:24:47.228Z,31.50
2017-06-30T09:27:13.847Z,32.30
2017-06-30T09:29:40.325Z,32.10
2017-06-30T09:32:07.537Z,30.20
2017-06-30T09:34:34.049Z,30.20
2017-06-30T09:37:00.545Z,32.60
2017-06-30T09:39:27.789Z,31.70
2017-06-30T09:41:54.989Z,31.90
2017-06-30T09:44:21.508Z,31.80
2017-06-30T09:46:47.971Z,30.00
2017-06-30T09:49:14.451Z,33.70
2017-06-30T09:51:40.987Z,31.80
2017-06-30T09:54:07.476Z,32.30
2017-06-30T09:56:33.937Z,32.00
2017-06-30T09:59:01.254Z,32.60
2017-06-30T10:01:27.745Z,32.60
2017-06-30T10:03:54.293Z,36.00
2017-06-30T10:06:20.797Z,32.50
2017-06-30T10:08:47.307Z,35.50
2017-06-30T10:11:13.837Z,36.70
2017-06-30T10:13:40.546Z,35.10
2017-06-30T10:16:07.010Z,36.40
2017-06-30T10:18:33.504Z,35.70
2017-06-30T10:21:00.237Z,36.80
2017-06-30T10:23:26.702Z,34.90
2017-06-30T10:25:53.147Z,34.40
2017-06-30T10:28:21.270Z,37.20
2017-06-30T10:30:47.751Z,37.20
2017-06-30T10:33:14.994Z,37.20
2017-06-30T10:35:41.465Z,37.20
2017-06-30T10:38:07.934Z,38.10
2017-06-30T10:40:34.453Z,36.70
2017-06-30T10:43:00.916Z,37.40
2017-06-30T10:45:27.423Z,37.70
2017-06-30T10:47:53.888Z,39.10
2017-06-30T10:50:20.531Z,39.80
2017-06-30T10:52:47.749Z,35.10
2017-06-30T10:55:14.241Z,35.00
2017-06-30T10:57:40.744Z,36.30
2017-06-30T11:00:07.619Z,37.40
2017-06-30T11:02:34.129Z,36.70
2017-06-30T11:05:01.342Z,35.90
2017-06-30T11:07:27.873Z,35.90
2017-06-30T11:09:54.346Z,35.30
2017-06-30T11:12:21.559Z,36.20
2017-06-30T11:14:48.077Z,36.10
2017-06-30T11:17:14.562Z,35.80
2017-06-30T11:19:41.197Z,37.20
2017-06-30T11:22:08.387Z,37.80
2017-06-30T11:24:34.865Z,37.70
2017-06-30T11:27:02.133Z,39.00
2017-06-30T11:29:28.635Z,38.20
2017-06-30T11:31:55.138Z,37.00
2017-06-30T11:34:21.607Z,39.40
2017-06-30T11:36:48.113Z,39.80
2017-06-30T11:39:14.574Z,40.20
2017-06-30T11:41:41.106Z,41.10
2017-06-30T11:44:07.580Z,40.50
2017-06-30T11:46:34.125Z,40.90
2017-06-30T11:49:00.625Z,40.10
2017-06-30T11:51:27.830Z,40.00
2017-06-30T11:53:54.675Z,40.00
2017-06-30T11:56:21.111Z,41.70
2017-06-30T11:58:47.634Z,40.00
2017-06-30T12:01:14.150Z,41.00
2017-06-30T12:03:40.889Z,40.50
2017-06-30T12:06:07.369Z,39.80
2017-06-30T12:08:33.847Z,41.10
2017-06-30T12:11:00.345Z,42.40
2017-06-30T12:13:27.605Z,42.20
2017-06-30T12:15:54.145Z,42.20
2017-06-30T12:18:20.644Z,42.30
2017-06-30T12:20:47.189Z,42.40
2017-06-30T12:23:13.691Z,43.10
2017-06-30T12:25:40.205Z,42.30
2017-06-30T12:28:06.678Z,41.40
2017-06-30T12:30:33.140Z,43.40
2017-06-30T12:32:59.666Z,41.60
2017-06-30T12:35:26.163Z,41.80
2017-06-30T12:37:52.681Z,42.00
2017-06-30T12:40:19.238Z,43.00
2017-06-30T12:42:45.724Z,41.90
2017-06-30T12:45:12.246Z,43.80
2017-06-30T12:47:38.711Z,42.40
2017-06-30T12:50:05.242Z,42.90
2017-06-30T12:52:31.738Z,40.80
2017-06-30T12:54:58.221Z,41.20
2017-06-30T12:57:24.753Z,42.00
2017-06-30T12:59:51.298Z,43.20
2017-06-30T13:02:17.803Z,41.90
2017-06-30T13:04:44.348Z,42.40
2017-06-30T13:07:10.788Z,43.60
2017-06-30T13:09:37.297Z,43.20
2017-06-30T13:12:03.783Z,42.60
2017-06-30T13:14:31.032Z,44.10
2017-06-30T13:16:59.362Z,42.90
2017-06-30T13:19:25.862Z,42.90
2017-06-30T13:21:52.403Z,42.00
2017-06-30T13:24:18.874Z,42.40
2017-06-30T13:26:45.366Z,43.40
2017-06-30T13:29:11.878Z,42.30
2017-06-30T13:31:39.365Z,44.10
2017-06-30T13:34:05.854Z,44.10
2017-06-30T13:36:32.441Z,44.30
2017-06-30T13:38:58.924Z,43.30
2017-06-30T13:41:25.395Z,40.80
2017-06-30T13:43:51.936Z,40.90
2017-06-30T13:46:18.402Z,40.20
2017-06-30T13:48:44.855Z,42.00
2017-06-30T13:51:12.126Z,45.80
2017-06-30T13:53:38.645Z,45.10
2017-06-30T13:56:05.190Z,45.20
2017-06-30T13:58:31.685Z,44.10
2017-06-30T14:00:58.157Z,44.90
2017-06-30T14:03:24.704Z,44.80
2017-06-30T14:05:51.244Z,45.00
2017-06-30T14:08:17.735Z,46.20
2017-06-30T14:10:45.007Z,45.80
2017-06-30T14:13:11.469Z,45.80
2017-06-30T14:15:37.963Z,45.60
2017-06-30T14:18:04.437Z,46.80
2017-06-30T14:20:30.939Z,44.40
2017-06-30T14:22:57.474Z,44.90
2017-06-30T14:25:24.015Z,45.60
2017-06-30T14:27:50.557Z,44.50
2017-06-30T14:30:17.053Z,43.90
2017-06-30T14:32:43.589Z,43.70
2017-06-30T14:35:10.805Z,41.10
2017-06-30T14:37:37.395Z,41.20
2017-06-30T14:40:03.870Z,42.30
2017-06-30T14:42:30.330Z,42.30
2017-06-30T14:44:56.834Z,42.50
2017-06-30T14:47:23.303Z,44.40
2017-06-30T14:49:50.553Z,45.70
2017-06-30T14:52:17.776Z,46.00
2017-06-30T14:54:44.300Z,46.60
2017-06-30T14:57:10.779Z,46.30
2017-06-30T14:59:38.071Z,45.10
2017-06-30T15:02:04.598Z,45.10
2017-06-30T15:04:31.132Z,45.30
2017-06-30T15:06:57.660Z,46.50
2017-06-30T15:09:24.139Z,47.10
2017-06-30T15:11:50.605Z,44.70
2017-06-30T15:14:17.144Z,43.40
2017-06-30T15:16:43.639Z,44.50
2017-06-30T15:19:10.165Z,44.20
2017-06-30T15:21:36.651Z,42.30
2017-06-30T15:24:03.120Z,41.70
2017-06-30T15:26:29.654Z,42.20
2017-06-30T15:28:56.159Z,43.50
2017-06-30T15:31:22.646Z,44.50
2017-06-30T15:33:49.915Z,45.10
2017-06-30T15:36:16.401Z,45.00
2017-06-30T15:38:42.942Z,44.10
2017-06-30T15:41:09.412Z,43.80
2017-06-30T15:43:35.986Z,43.20
2017-06-30T15:46:02.474Z,43.40
2017-06-30T15:48:28.963Z,42.50
2017-06-30T15:50:55.524Z,41.10
2017-06-30T15:53:22.769Z,39.20
2017-06-30T15:55:49.263Z,39.10
2017-06-30T15:58:15.807Z,40.00
2017-06-30T16:00:42.293Z,40.10
2017-06-30T16:03:08.814Z,40.40
2017-06-30T16:05:36.072Z,41.00
2017-06-30T16:08:03.298Z,41.90
2017-06-30T16:10:29.926Z,41.80
2017-06-30T16:12:56.444Z,40.60
2017-06-30T16:15:22.926Z,40.20
2017-06-30T16:17:49.441Z,40.00
2017-06-30T16:20:15.950Z,40.60
2017-06-30T16:22:42.617Z,41.20
2017-06-30T16:25:09.147Z,41.10
2017-06-30T16:27:36.365Z,43.10
2017-06-30T16:30:02.901Z,43.10
2017-06-30T16:32:29.420Z,43.60
2017-06-30T16:34:55.965Z,43.90
2017-06-30T16:37:22.447Z,45.10
2017-06-30T16:39:48.951Z,46.80
2017-06-30T16:42:15.453Z,47.60
2017-06-30T16:44:41.947Z,48.30
2017-06-30T16:47:08.482Z,48.50
2017-06-30T16:49:34.981Z,49.20
2017-06-30T16:52:01.494Z,50.20
2017-06-30T16:54:27.950Z,50.10
2017-06-30T16:56:54.425Z,50.70
2017-06-30T16:59:21.083Z,51.70
2017-06-30T17:01:47.567Z,52.20
2017-06-30T17:04:14.763Z,52.50
2017-06-30T17:06:41.343Z,52.40
2017-06-30T17:09:08.575Z,53.00
2017-06-30T17:11:35.136Z,53.00
2017-06-30T17:14:02.340Z,53.50
2017-06-30T17:16:28.873Z,53.60
2017-06-30T17:18:55.348Z,54.00
2017-06-30T17:21:22.571Z,54.80
2017-06-30T17:23:49.073Z,54.80
2017-06-30T17:26:15.538Z,54.80
2017-06-30T17:28:42.006Z,55.40
2017-06-30T17:31:08.525Z,55.00
2017-06-30T17:33:35.748Z,57.10
2017-06-30T17:36:02.282Z,56.50
2017-06-30T17:38:28.755Z,55.60
2017-06-30T17:40:55.253Z,56.20
2017-06-30T17:43:21.960Z,56.20
2017-06-30T17:45:48.465Z,56.40
2017-06-30T17:48:14.946Z,55.80
2017-06-30T17:50:41.465Z,55.50
2017-06-30T17:53:07.970Z,55.50
2017-06-30T17:55:34.581Z,54.60
2017-06-30T17:58:01.807Z,55.60
2017-06-30T18:00:28.304Z,55.60
2017-06-30T18:02:54.797Z,55.90
2017-06-30T18:05:22.008Z,57.00
2017-06-30T18:07:48.582Z,57.00
2017-06-30T18:10:15.825Z,56.90
2017-06-30T18:12:43.055Z,57.40
2017-06-30T18:15:09.579Z,57.30
2017-06-30T18:17:36.133Z,57.50
2017-06-30T18:20:02.694Z,57.70
2017-06-30T18:22:29.190Z,57.50
2017-06-30T18:24:55.639Z,57.70
2017-06-30T18:27:22.973Z,57.60
2017-06-30T18:29:49.432Z,57.30
2017-06-30T18:32:16.662Z,58.10
2017-06-30T18:34:43.359Z,58.00
2017-06-30T18:37:09.865Z,56.20
2017-06-30T18:39:36.362Z,56.80
2017-06-30T18:42:02.880Z,56.50
2017-06-30T18:44:29.372Z,56.20
2017-06-30T18:46:55.940Z,56.70
2017-06-30T18:49:22.419Z,56.70
2017-06-30T18:51:49.630Z,57.60
2017-06-30T18:54:16.156Z,57.00
2017-06-30T18:56:42.635Z,57.50
2017-06-30T18:59:09.104Z,57.00
2017-06-30T19:01:35.670Z,57.80
2017-06-30T19:04:02.976Z,57.70
2017-06-30T19:06:29.742Z,57.40
2017-06-30T19:08:56.250Z,57.60
2017-06-30T19:11:22.719Z,57.20
2017-06-30T19:13:49.291Z,57.10
2017-06-30T19:16:16.514Z,57.60
2017-06-30T19:18:43.044Z,57.50
2017-06-30T19:21:09.533Z,57.50
2017-06-30T19:23:36.021Z,58.50
2017-06-30T19:26:02.525Z,58.50
2017-06-30T19:28:29.049Z,58.60
2017-06-30T19:30:55.823Z,59.40
2017-06-30T19:33:22.299Z,58.50
2017-06-30T19:35:48.821Z,58.90
2017-06-30T19:38:15.511Z,58.60
2017-06-30T19:40:42.002Z,59.30
2017-06-30T19:43:08.476Z,59.50
2017-06-30T19:45:34.971Z,59.20
2017-06-30T19:48:01.426Z,59.20
2017-06-30T19:50:27.962Z,59.20
2017-06-30T19:52:54.433Z,58.50
2017-06-30T19:55:21.649Z,58.20
2017-06-30T19:57:48.187Z,58.20
2017-06-30T20:00:14.661Z,57.40
2017-06-30T20:02:41.917Z,57.80
2017-06-30T20:05:19.715Z,57.80
2017-06-30T20:07:46.246Z,56.70
2017-06-30T20:10:12.821Z,56.60
2017-06-30T20:12:39.322Z,56.90
2017-06-30T20:15:06.003Z,57.50
2017-06-30T20:17:32.525Z,57.60
2017-06-30T20:19:59.056Z,57.50
2017-06-30T20:22:26.054Z,57.90
2017-06-30T20:24:53.300Z,57.30
2017-06-30T20:27:20.520Z,57.30
2017-06-30T20:29:47.070Z,57.30
2017-06-30T20:32:13.531Z,57.70
2017-06-30T20:34:40.076Z,57.60
2017-06-30T20:37:06.565Z,58.20
2017-06-30T20:39:33.115Z,58.60
2017-06-30T20:42:00.331Z,58.80
2017-06-30T20:44:26.818Z,58.80
2017-06-30T20:46:53.375Z,58.80
2017-06-30T20:49:19.867Z,58.80
2017-06-30T20:51:47.114Z,59.20
2017-06-30T20:54:14.429Z,59.30
2017-06-30T20:56:40.940Z,59.20
2017-06-30T20:59:07.462Z,59.60
2017-06-30T21:01:33.983Z,59.50
2017-06-30T21:04:00.467Z,59.60
2017-06-30T21:06:27.039Z,60.00
2017-06-30T21:08:54.400Z,60.60
2017-06-30T21:11:20.886Z,60.60
2017-06-30T21:13:47.423Z,62.00
2017-06-30T21:16:13.944Z,62.10
2017-06-30T21:18:40.669Z,62.10
2017-06-30T21:21:07.196Z,62.70
2017-06-30T21:23:33.666Z,62.70
2017-06-30T21:26:00.206Z,62.80
2017-06-30T21:28:26.677Z,62.60
2017-06-30T21:30:53.377Z,62.30
2017-06-30T21:33:19.872Z,62.40
2017-06-30T21:35:46.348Z,62.30
2017-06-30T21:38:12.892Z,62.50
2017-06-30T21:40:46.139Z,62.10
2017-06-30T21:43:12.678Z,62.70
2017-06-30T21:45:39.141Z,62.90
2017-06-30T21:48:05.624Z,62.10
2017-06-30T21:50:32.089Z,61.00
2017-06-30T21:52:58.823Z,60.60
2017-06-30T21:55:25.323Z,60.20
2017-06-30T21:57:51.851Z,60.70
2017-06-30T22:00:18.354Z,60.50
2017-06-30T22:02:45.558Z,60.70
2017-06-30T22:05:12.277Z,60.60
2017-06-30T22:07:38.746Z,60.40
2017-06-30T22:10:05.617Z,60.80
2017-06-30T22:12:32.857Z,62.20
2017-06-30T22:15:00.091Z,62.30
2017-06-30T22:17:26.622Z,62.20
2017-06-30T22:19:53.137Z,62.40
2017-06-30T22:22:19.678Z,62.40
2017-06-30T22:24:46.167Z,62.50
2017-06-30T22:27:13.797Z,63.20
2017-06-30T22:29:41.076Z,63.00
2017-06-30T22:32:07.544Z,63.00
2017-06-30T22:34:34.021Z,63.40
2017-06-30T22:37:00.523Z,63.00
2017-06-30T22:39:27.001Z,63.10
2017-06-30T22:41:53.522Z,63.70
2017-06-30T22:44:20.013Z,63.80
2017-06-30T22:46:46.464Z,63.50
2017-06-30T22:49:12.970Z,63.70
2017-06-30T22:51:39.481Z,63.80
2017-06-30T22:54:06.019Z,63.80
2017-06-30T22:56:32.550Z,63.70
2017-06-30T22:58:59.017Z,62.90
2017-06-30T23:01:25.522Z,63.70
2017-06-30T23:03:52.022Z,63.70
2017-06-30T23:06:18.511Z,64.10
2017-06-30T23:08:45.026Z,64.20
2017-06-30T23:11:11.575Z,63.60
2017-06-30T23:13:38.100Z,63.60
2017-06-30T23:16:04.583Z,63.60
2017-06-30T23:18:31.258Z,64.20
2017-06-30T23:20:57.748Z,63.50
2017-06-30T23:23:25.053Z,63.60
2017-06-30T23:25:51.799Z,63.60
2017-06-30T23:28:18.344Z,64.70
2017-06-30T23:30:44.905Z,63.80
2017-06-30T23:33:12.214Z,63.60
2017-06-30T23:35:38.788Z,63.50
2017-06-30T23:38:06.107Z,64.10
2017-06-30T23:40:32.663Z,64.10
2017-06-30T23:42:59.209Z,64.10
2017-06-30T23:45:25.749Z,64.40
2017-06-30T23:47:53.055Z,64.20
2017-06-30T23:50:19.590Z,64.10
2017-06-30T23:52:46.066Z,63.80
2017-06-30T23:55:13.564Z,64.00
2017-06-30T23:57:40.061Z,63.90
